Geneva Cointrin International Airport LSGG

Flugplatz Daten

Name: Geneva Cointrin International Airport

Ident: LSGG

Lat: 46,23809814

Long: 6,108950138

Platzhöhe: 1411 ft

IataCode: GVA

City: Geneva

Homepage: http://www.gva.ch/

Metar

2021/08/02 08:20
LSGG 020820Z VRB02KT 9999 FEW020 17/12 Q1017 NOSIG

Taf

2021/08/02 09:33
TAF TAF LSGG 020825Z 0209/0315 VRB03KT 9999 FEW020 TX22/0215Z TN12/0304Z TX22/0315Z PROB30
TEMPO 0210/0216 SHRA FEW050TCU
Gewünschte Webcam nicht vorhanden? Dann fügen Sie eine hinzu. Sie wird dann so schnell wie möglich freigeschaltet
Url: Title: